Terminal Aerodrome Forecast
Issued by NWS Portland, OR

Home | Current Version | Previous Version | Text Only | Print | Product List | Glossary On
Versions: 1 2 3 4 5 6 7 8 9 10 11 12 13 14 15 16 17 18 19 20 21 22 23 24 25 26 27 28
000
FTUS46 KPQR 130520
TAFSLE
TAF
KSLE 130520Z 1306/1406 29007KT P6SM SKC
     FM131000 22004KT P6SM SCT150
     FM132200 25005KT P6SM VCSH SCT060 BKN150=

USA.gov is the U.S. government's official web portal to all federal, state and local government web resources and services.